sensor_id;sensor_type;location;lat;lon;timestamp;pressure;altitude;pressure_sealevel;temperature;humidity
37778;BME280;23615;51.506;7.678;2023-04-22T00:01:13;99308.69;;;10.75;86.74
37778;BME280;23615;51.506;7.678;2023-04-22T00:03:39;99312.91;;;10.71;87.17
37778;BME280;23615;51.506;7.678;2023-04-22T00:06:06;99311.53;;;10.69;86.73
37778;BME280;23615;51.506;7.678;2023-04-22T00:08:31;99319.19;;;10.65;87.01
37778;BME280;23615;51.506;7.678;2023-04-22T00:10:56;99320.50;;;10.63;87.08
37778;BME280;23615;51.506;7.678;2023-04-22T00:13:22;99312.63;;;10.56;87.06
37778;BME280;23615;51.506;7.678;2023-04-22T00:15:47;99314.19;;;10.52;87.28
37778;BME280;23615;51.506;7.678;2023-04-22T00:18:12;99302.38;;;10.48;87.21
37778;BME280;23615;51.506;7.678;2023-04-22T00:20:40;99309.31;;;10.49;87.14
37778;BME280;23615;51.506;7.678;2023-04-22T00:23:05;99305.84;;;10.48;87.38
37778;BME280;23615;51.506;7.678;2023-04-22T00:25:30;99297.31;;;10.46;86.91
37778;BME280;23615;51.506;7.678;2023-04-22T00:27:56;99305.53;;;10.45;87.56
37778;BME280;23615;51.506;7.678;2023-04-22T00:30:21;99300.44;;;10.43;87.13
37778;BME280;23615;51.506;7.678;2023-04-22T00:32:46;99302.88;;;10.45;87.45
37778;BME280;23615;51.506;7.678;2023-04-22T00:35:13;99306.59;;;10.44;87.56
37778;BME280;23615;51.506;7.678;2023-04-22T00:37:38;99302.75;;;10.40;87.12
37778;BME280;23615;51.506;7.678;2023-04-22T00:40:04;99295.25;;;10.37;87.38
37778;BME280;23615;51.506;7.678;2023-04-22T00:42:31;99300.03;;;10.35;87.50
37778;BME280;23615;51.506;7.678;2023-04-22T00:44:57;99293.53;;;10.31;88.10
37778;BME280;23615;51.506;7.678;2023-04-22T00:47:22;99290.06;;;10.30;88.28
37778;BME280;23615;51.506;7.678;2023-04-22T00:49:52;99287.06;;;10.27;88.45
37778;BME280;23615;51.506;7.678;2023-04-22T00:52:17;99295.53;;;10.24;88.55
37778;BME280;23615;51.506;7.678;2023-04-22T00:54:43;99297.09;;;10.20;89.41
37778;BME280;23615;51.506;7.678;2023-04-22T00:57:08;99292.81;;;10.19;89.26
37778;BME280;23615;51.506;7.678;2023-04-22T00:59:34;99293.00;;;10.17;89.44
37778;BME280;23615;51.506;7.678;2023-04-22T01:02:00;99289.19;;;10.13;89.24
37778;BME280;23615;51.506;7.678;2023-04-22T01:04:25;99291.53;;;10.09;89.44
37778;BME280;23615;51.506;7.678;2023-04-22T01:06:51;99287.25;;;10.08;89.82
37778;BME280;23615;51.506;7.678;2023-04-22T01:09:18;99290.97;;;10.07;89.77
37778;BME280;23615;51.506;7.678;2023-04-22T01:11:45;99288.53;;;10.06;89.96
37778;BME280;23615;51.506;7.678;2023-04-22T01:14:11;99292.34;;;10.10;90.05
37778;BME280;23615;51.506;7.678;2023-04-22T01:16:37;99289.81;;;10.03;90.12
37778;BME280;23615;51.506;7.678;2023-04-22T01:19:07;99290.28;;;10.00;91.07
37778;BME280;23615;51.506;7.678;2023-04-22T01:21:33;99292.97;;;10.00;91.02
37778;BME280;23615;51.506;7.678;2023-04-22T01:24:00;99293.78;;;10.01;90.92
37778;BME280;23615;51.506;7.678;2023-04-22T01:26:26;99280.09;;;9.97;91.73
37778;BME280;23615;51.506;7.678;2023-04-22T01:28:51;99291.00;;;9.96;91.87
37778;BME280;23615;51.506;7.678;2023-04-22T01:31:18;99289.59;;;9.93;92.11
37778;BME280;23615;51.506;7.678;2023-04-22T01:33:43;99286.94;;;9.93;92.48
37778;BME280;23615;51.506;7.678;2023-04-22T01:36:10;99287.19;;;9.92;92.70
37778;BME280;23615;51.506;7.678;2023-04-22T01:38:35;99285.91;;;9.94;92.40
37778;BME280;23615;51.506;7.678;2023-04-22T01:41:01;99288.31;;;9.96;92.89
37778;BME280;23615;51.506;7.678;2023-04-22T01:43:27;99287.88;;;9.99;93.02
37778;BME280;23615;51.506;7.678;2023-04-22T01:45:54;99289.00;;;10.03;93.00
37778;BME280;23615;51.506;7.678;2023-04-22T01:48:20;99284.47;;;10.03;92.81
37778;BME280;23615;51.506;7.678;2023-04-22T01:50:45;99293.03;;;10.05;92.87
37778;BME280;23615;51.506;7.678;2023-04-22T01:53:11;99296.28;;;10.07;92.83
37778;BME280;23615;51.506;7.678;2023-04-22T01:55:37;99298.50;;;10.10;93.09
37778;BME280;23615;51.506;7.678;2023-04-22T01:58:03;99294.75;;;10.11;92.87
37778;BME280;23615;51.506;7.678;2023-04-22T02:00:29;99291.63;;;10.14;92.66
37778;BME280;23615;51.506;7.678;2023-04-22T02:02:55;99292.19;;;10.17;92.26
37778;BME280;23615;51.506;7.678;2023-04-22T02:05:20;99293.84;;;10.18;92.19
37778;BME280;23615;51.506;7.678;2023-04-22T02:07:46;99293.47;;;10.14;92.83
37778;BME280;23615;51.506;7.678;2023-04-22T02:10:11;99294.28;;;10.14;92.56
37778;BME280;23615;51.506;7.678;2023-04-22T02:12:37;99304.94;;;10.14;92.69
37778;BME280;23615;51.506;7.678;2023-04-22T02:15:03;99301.47;;;10.14;92.54
37778;BME280;23615;51.506;7.678;2023-04-22T02:17:28;99302.28;;;10.14;92.71
37778;BME280;23615;51.506;7.678;2023-04-22T02:19:53;99304.50;;;10.18;92.10
37778;BME280;23615;51.506;7.678;2023-04-22T02:22:20;99297.53;;;10.17;92.09
37778;BME280;23615;51.506;7.678;2023-04-22T02:24:46;99295.31;;;10.13;92.52
37778;BME280;23615;51.506;7.678;2023-04-22T02:27:11;99297.53;;;10.17;92.44
37778;BME280;23615;51.506;7.678;2023-04-22T02:29:36;99296.28;;;10.19;92.56
37778;BME280;23615;51.506;7.678;2023-04-22T02:32:02;99296.72;;;10.16;92.12
37778;BME280;23615;51.506;7.678;2023-04-22T02:34:27;99298.56;;;10.16;91.86
37778;BME280;23615;51.506;7.678;2023-04-22T02:36:52;99300.66;;;10.13;92.10
37778;BME280;23615;51.506;7.678;2023-04-22T02:39:17;99299.03;;;10.12;92.32
37778;BME280;23615;51.506;7.678;2023-04-22T02:41:43;99300.66;;;10.13;92.09
37778;BME280;23615;51.506;7.678;2023-04-22T02:44:08;99306.78;;;10.14;92.27
37778;BME280;23615;51.506;7.678;2023-04-22T02:46:34;99300.88;;;10.12;92.63
37778;BME280;23615;51.506;7.678;2023-04-22T02:48:59;99290.50;;;10.10;92.83
37778;BME280;23615;51.506;7.678;2023-04-22T02:51:24;99296.28;;;10.07;92.51
37778;BME280;23615;51.506;7.678;2023-04-22T02:53:51;99291.41;;;10.04;93.17
37778;BME280;23615;51.506;7.678;2023-04-22T02:56:16;99281.81;;;10.03;93.14
37778;BME280;23615;51.506;7.678;2023-04-22T02:58:42;99287.38;;;10.02;93.43
37778;BME280;23615;51.506;7.678;2023-04-22T03:01:07;99286.81;;;10.00;93.48
37778;BME280;23615;51.506;7.678;2023-04-22T03:03:32;99285.78;;;10.01;93.61
37778;BME280;23615;51.506;7.678;2023-04-22T03:05:58;99274.78;;;9.97;93.96
37778;BME280;23615;51.506;7.678;2023-04-22T03:08:24;99283.91;;;10.01;94.17
37778;BME280;23615;51.506;7.678;2023-04-22T03:10:49;99273.25;;;10.01;94.45
37778;BME280;23615;51.506;7.678;2023-04-22T03:13:15;99272.69;;;9.99;94.58
37778;BME280;23615;51.506;7.678;2023-04-22T03:15:40;99272.44;;;10.01;95.14
37778;BME280;23615;51.506;7.678;2023-04-22T03:18:06;99265.00;;;10.03;94.78
37778;BME280;23615;51.506;7.678;2023-04-22T03:20:31;99263.16;;;10.03;95.23
37778;BME280;23615;51.506;7.678;2023-04-22T03:22:56;99261.28;;;10.04;94.53
37778;BME280;23615;51.506;7.678;2023-04-22T03:25:22;99275.19;;;10.06;95.13
37778;BME280;23615;51.506;7.678;2023-04-22T03:27:47;99277.16;;;10.10;95.06
37778;BME280;23615;51.506;7.678;2023-04-22T03:30:12;99269.72;;;10.12;94.52
37778;BME280;23615;51.506;7.678;2023-04-22T03:32:38;99274.81;;;10.14;95.02
37778;BME280;23615;51.506;7.678;2023-04-22T03:35:03;99270.28;;;10.14;94.52
37778;BME280;23615;51.506;7.678;2023-04-22T03:37:29;99263.09;;;10.15;94.10
37778;BME280;23615;51.506;7.678;2023-04-22T03:39:54;99254.88;;;10.17;94.33
37778;BME280;23615;51.506;7.678;2023-04-22T03:42:19;99253.03;;;10.17;94.85
37778;BME280;23615;51.506;7.678;2023-04-22T03:44:45;99250.16;;;10.19;94.40
37778;BME280;23615;51.506;7.678;2023-04-22T03:47:10;99251.78;;;10.20;94.73
37778;BME280;23615;51.506;7.678;2023-04-22T03:49:35;99250.22;;;10.24;94.88
37778;BME280;23615;51.506;7.678;2023-04-22T03:52:00;99251.03;;;10.24;94.43
37778;BME280;23615;51.506;7.678;2023-04-22T03:54:26;99240.38;;;10.24;94.42
37778;BME280;23615;51.506;7.678;2023-04-22T03:56:51;99242.22;;;10.24;94.61
37778;BME280;23615;51.506;7.678;2023-04-22T03:59:17;99247.56;;;10.24;94.82
37778;BME280;23615;51.506;7.678;2023-04-22T04:01:45;99248.13;;;10.26;94.68
37778;BME280;23615;51.506;7.678;2023-04-22T04:04:10;99229.72;;;10.24;94.53
37778;BME280;23615;51.506;7.678;2023-04-22T04:06:35;99238.75;;;10.23;95.27
37778;BME280;23615;51.506;7.678;2023-04-22T04:09:00;99238.75;;;10.23;95.48
37778;BME280;23615;51.506;7.678;2023-04-22T04:11:26;99235.63;;;10.26;95.63
37778;BME280;23615;51.506;7.678;2023-04-22T04:13:51;99235.38;;;10.28;95.38
37778;BME280;23615;51.506;7.678;2023-04-22T04:16:17;99239.66;;;10.29;95.69
37778;BME280;23615;51.506;7.678;2023-04-22T04:18:42;99241.03;;;10.31;95.16
37778;BME280;23615;51.506;7.678;2023-04-22T04:21:07;99233.84;;;10.32;95.46
37778;BME280;23615;51.506;7.678;2023-04-22T04:23:33;99235.44;;;10.33;95.65
37778;BME280;23615;51.506;7.678;2023-04-22T04:25:58;99226.97;;;10.36;95.60
37778;BME280;23615;51.506;7.678;2023-04-22T04:28:27;99219.78;;;10.36;95.58
37778;BME280;23615;51.506;7.678;2023-04-22T04:30:56;99220.34;;;10.38;95.69
37778;BME280;23615;51.506;7.678;2023-04-22T04:33:21;99229.16;;;10.39;95.40
37778;BME280;23615;51.506;7.678;2023-04-22T04:35:47;99233.44;;;10.40;95.31
37778;BME280;23615;51.506;7.678;2023-04-22T04:38:14;99226.81;;;10.42;94.96
37778;BME280;23615;51.506;7.678;2023-04-22T04:40:39;99227.63;;;10.43;94.73
37778;BME280;23615;51.506;7.678;2023-04-22T04:43:09;99216.72;;;10.44;94.79
37778;BME280;23615;51.506;7.678;2023-04-22T04:45:34;99220.75;;;10.47;94.55
37778;BME280;23615;51.506;7.678;2023-04-22T04:48:01;99217.84;;;10.48;94.96
37778;BME280;23615;51.506;7.678;2023-04-22T04:50:27;99211.69;;;10.48;94.38
37778;BME280;23615;51.506;7.678;2023-04-22T04:52:53;99203.69;;;10.48;94.37
37778;BME280;23615;51.506;7.678;2023-04-22T04:55:18;99197.31;;;10.49;94.45
37778;BME280;23615;51.506;7.678;2023-04-22T04:57:44;99205.31;;;10.49;94.33
37778;BME280;23615;51.506;7.678;2023-04-22T05:00:09;99201.38;;;10.52;94.21
37778;BME280;23615;51.506;7.678;2023-04-22T05:02:35;99204.38;;;10.55;94.57
37778;BME280;23615;51.506;7.678;2023-04-22T05:05:00;99203.28;;;10.56;94.13
37778;BME280;23615;51.506;7.678;2023-04-22T05:07:26;99205.94;;;10.56;94.47
37778;BME280;23615;51.506;7.678;2023-04-22T05:09:51;99208.94;;;10.60;93.95
37778;BME280;23615;51.506;7.678;2023-04-22T05:12:16;99203.63;;;10.60;94.21
37778;BME280;23615;51.506;7.678;2023-04-22T05:14:41;99209.53;;;10.62;94.17
37778;BME280;23615;51.506;7.678;2023-04-22T05:17:07;99206.84;;;10.62;94.71
37778;BME280;23615;51.506;7.678;2023-04-22T05:19:32;99211.44;;;10.66;94.62
37778;BME280;23615;51.506;7.678;2023-04-22T05:21:58;99207.25;;;10.70;94.26
37778;BME280;23615;51.506;7.678;2023-04-22T05:24:23;99210.25;;;10.74;94.28
37778;BME280;23615;51.506;7.678;2023-04-22T05:26:49;99210.78;;;10.76;94.60
37778;BME280;23615;51.506;7.678;2023-04-22T05:29:14;99217.84;;;10.82;94.49
37778;BME280;23615;51.506;7.678;2023-04-22T05:31:40;99221.03;;;10.84;94.16
37778;BME280;23615;51.506;7.678;2023-04-22T05:34:05;99218.72;;;10.87;94.21
37778;BME280;23615;51.506;7.678;2023-04-22T05:36:30;99213.22;;;10.77;95.05
37778;BME280;23615;51.506;7.678;2023-04-22T05:38:56;99217.41;;;10.90;94.90
37778;BME280;23615;51.506;7.678;2023-04-22T05:41:21;99214.50;;;10.92;94.42
37778;BME280;23615;51.506;7.678;2023-04-22T05:43:46;99219.09;;;10.96;94.78
37778;BME280;23615;51.506;7.678;2023-04-22T05:46:12;99204.47;;;10.99;94.69
37778;BME280;23615;51.506;7.678;2023-04-22T05:48:37;99202.41;;;11.06;94.71
37778;BME280;23615;51.506;7.678;2023-04-22T05:51:02;99201.69;;;11.10;94.40
37778;BME280;23615;51.506;7.678;2023-04-22T05:53:28;99207.91;;;11.16;94.33
37778;BME280;23615;51.506;7.678;2023-04-22T05:55:54;99203.13;;;11.18;94.71
37778;BME280;23615;51.506;7.678;2023-04-22T05:58:19;99204.16;;;11.17;94.82
37778;BME280;23615;51.506;7.678;2023-04-22T06:00:44;99204.31;;;11.27;94.91
37778;BME280;23615;51.506;7.678;2023-04-22T06:03:10;99211.63;;;11.37;94.25
37778;BME280;23615;51.506;7.678;2023-04-22T06:05:35;99205.78;;;11.40;93.92
37778;BME280;23615;51.506;7.678;2023-04-22T06:08:00;99205.63;;;11.46;93.90
37778;BME280;23615;51.506;7.678;2023-04-22T06:10:26;99209.94;;;11.52;93.85
37778;BME280;23615;51.506;7.678;2023-04-22T06:12:51;99208.38;;;11.56;93.52
37778;BME280;23615;51.506;7.678;2023-04-22T06:15:17;99208.50;;;11.67;93.52
37778;BME280;23615;51.506;7.678;2023-04-22T06:17:42;99208.06;;;11.75;93.11
37778;BME280;23615;51.506;7.678;2023-04-22T06:20:09;99207.09;;;11.81;93.43
37778;BME280;23615;51.506;7.678;2023-04-22T06:22:35;99199.69;;;11.88;93.72
37778;BME280;23615;51.506;7.678;2023-04-22T06:25:00;99209.91;;;11.96;93.63
37778;BME280;23615;51.506;7.678;2023-04-22T06:27:25;99199.81;;;12.03;93.79
37778;BME280;23615;51.506;7.678;2023-04-22T06:29:50;99206.59;;;12.11;93.39
37778;BME280;23615;51.506;7.678;2023-04-22T06:32:16;99195.13;;;12.15;94.08
37778;BME280;23615;51.506;7.678;2023-04-22T06:34:41;99198.94;;;12.24;94.14
37778;BME280;23615;51.506;7.678;2023-04-22T06:37:06;99199.78;;;12.30;93.86
37778;BME280;23615;51.506;7.678;2023-04-22T06:39:32;99206.34;;;12.44;93.81
37778;BME280;23615;51.506;7.678;2023-04-22T06:41:57;99201.81;;;12.50;93.80
37778;BME280;23615;51.506;7.678;2023-04-22T06:44:23;99202.72;;;12.60;93.82
37778;BME280;23615;51.506;7.678;2023-04-22T06:46:49;99200.88;;;12.66;94.18
37778;BME280;23615;51.506;7.678;2023-04-22T06:49:15;99203.63;;;12.76;94.62
37778;BME280;23615;51.506;7.678;2023-04-22T06:51:40;99196.72;;;12.85;94.67
37778;BME280;23615;51.506;7.678;2023-04-22T06:54:05;99194.09;;;12.95;94.45
37778;BME280;23615;51.506;7.678;2023-04-22T06:56:31;99201.38;;;13.05;94.02
37778;BME280;23615;51.506;7.678;2023-04-22T06:58:56;99200.91;;;13.13;93.62
37778;BME280;23615;51.506;7.678;2023-04-22T07:01:21;99209.28;;;13.22;93.31
37778;BME280;23615;51.506;7.678;2023-04-22T07:03:46;99201.81;;;13.29;93.39
37778;BME280;23615;51.506;7.678;2023-04-22T07:06:12;99203.72;;;13.38;93.21
37778;BME280;23615;51.506;7.678;2023-04-22T07:08:37;99199.72;;;13.41;93.71
37778;BME280;23615;51.506;7.678;2023-04-22T07:11:03;99192.53;;;13.52;93.33
37778;BME280;23615;51.506;7.678;2023-04-22T07:13:28;99193.88;;;13.59;93.40
37778;BME280;23615;51.506;7.678;2023-04-22T07:15:58;99192.31;;;13.68;92.94
37778;BME280;23615;51.506;7.678;2023-04-22T07:18:24;99198.75;;;13.77;92.61
37778;BME280;23615;51.506;7.678;2023-04-22T07:20:49;99193.69;;;13.81;91.99
37778;BME280;23615;51.506;7.678;2023-04-22T07:23:14;99192.91;;;13.91;91.57
37778;BME280;23615;51.506;7.678;2023-04-22T07:25:40;99196.94;;;13.98;90.59
37778;BME280;23615;51.506;7.678;2023-04-22T07:28:05;99204.47;;;14.01;90.20
37778;BME280;23615;51.506;7.678;2023-04-22T07:30:30;99202.06;;;14.15;89.70
37778;BME280;23615;51.506;7.678;2023-04-22T07:32:56;99201.25;;;14.19;88.70
37778;BME280;23615;51.506;7.678;2023-04-22T07:35:21;99198.56;;;14.30;87.49
37778;BME280;23615;51.506;7.678;2023-04-22T07:37:46;99201.81;;;14.37;86.00
37778;BME280;23615;51.506;7.678;2023-04-22T07:40:11;99197.28;;;14.47;85.68
37778;BME280;23615;51.506;7.678;2023-04-22T07:42:38;99191.34;;;14.60;84.90
37778;BME280;23615;51.506;7.678;2023-04-22T07:45:04;99186.25;;;14.54;84.43
37778;BME280;23615;51.506;7.678;2023-04-22T07:47:30;99183.31;;;14.45;84.09
37778;BME280;23615;51.506;7.678;2023-04-22T07:49:55;99187.88;;;14.55;82.70
37778;BME280;23615;51.506;7.678;2023-04-22T07:52:21;99177.41;;;14.53;83.09
37778;BME280;23615;51.506;7.678;2023-04-22T07:54:46;99181.44;;;14.56;82.97
37778;BME280;23615;51.506;7.678;2023-04-22T07:57:11;99175.78;;;14.57;82.59
37778;BME280;23615;51.506;7.678;2023-04-22T07:59:37;99174.72;;;14.64;82.46
37778;BME280;23615;51.506;7.678;2023-04-22T08:02:02;99185.72;;;14.72;82.29
37778;BME280;23615;51.506;7.678;2023-04-22T08:04:27;99175.19;;;14.86;83.49
37778;BME280;23615;51.506;7.678;2023-04-22T08:06:53;99170.88;;;14.95;80.10
37778;BME280;23615;51.506;7.678;2023-04-22T08:09:19;99174.63;;;14.94;80.83
37778;BME280;23615;51.506;7.678;2023-04-22T08:11:44;99162.25;;;15.03;81.46
37778;BME280;23615;51.506;7.678;2023-04-22T08:14:09;99162.44;;;15.27;81.07
37778;BME280;23615;51.506;7.678;2023-04-22T08:16:36;99155.72;;;15.29;82.08
37778;BME280;23615;51.506;7.678;2023-04-22T08:19:02;99154.84;;;15.44;81.35
37778;BME280;23615;51.506;7.678;2023-04-22T08:21:27;99151.88;;;15.56;79.20
37778;BME280;23615;51.506;7.678;2023-04-22T08:23:52;99155.66;;;15.94;75.51
37778;BME280;23615;51.506;7.678;2023-04-22T08:26:19;99151.53;;;16.06;76.81
37778;BME280;23615;51.506;7.678;2023-04-22T08:28:44;99153.94;;;16.08;76.49
37778;BME280;23615;51.506;7.678;2023-04-22T08:31:09;99156.66;;;16.03;76.94
37778;BME280;23615;51.506;7.678;2023-04-22T08:33:37;99154.63;;;16.24;74.99
37778;BME280;23615;51.506;7.678;2023-04-22T08:36:02;99164.50;;;16.33;75.16
37778;BME280;23615;51.506;7.678;2023-04-22T08:38:28;99152.50;;;16.50;74.71
37778;BME280;23615;51.506;7.678;2023-04-22T08:40:55;99151.22;;;16.42;73.93
37778;BME280;23615;51.506;7.678;2023-04-22T08:43:21;99150.69;;;16.45;75.44
37778;BME280;23615;51.506;7.678;2023-04-22T08:45:47;99151.22;;;16.47;75.78
37778;BME280;23615;51.506;7.678;2023-04-22T08:48:13;99157.06;;;16.54;76.21
37778;BME280;23615;51.506;7.678;2023-04-22T08:50:40;99153.22;;;16.60;76.75
37778;BME280;23615;51.506;7.678;2023-04-22T08:53:05;99141.22;;;16.76;77.65
37778;BME280;23615;51.506;7.678;2023-04-22T08:55:33;99139.59;;;16.80;76.86
37778;BME280;23615;51.506;7.678;2023-04-22T08:58:03;99133.00;;;16.92;75.27
37778;BME280;23615;51.506;7.678;2023-04-22T09:00:31;99129.03;;;17.08;73.06
37778;BME280;23615;51.506;7.678;2023-04-22T09:03:00;99146.53;;;17.10;75.23
37778;BME280;23615;51.506;7.678;2023-04-22T09:05:26;99134.81;;;17.20;75.61
37778;BME280;23615;51.506;7.678;2023-04-22T09:07:52;99129.94;;;17.22;75.79
37778;BME280;23615;51.506;7.678;2023-04-22T09:10:18;99132.06;;;17.25;75.71
37778;BME280;23615;51.506;7.678;2023-04-22T09:12:45;99124.84;;;17.39;76.82
37778;BME280;23615;51.506;7.678;2023-04-22T09:15:11;99126.03;;;17.52;75.98
37778;BME280;23615;51.506;7.678;2023-04-22T09:17:36;99116.66;;;17.68;75.09
37778;BME280;23615;51.506;7.678;2023-04-22T09:20:06;99110.28;;;17.59;74.23
37778;BME280;23615;51.506;7.678;2023-04-22T09:22:39;99115.94;;;17.63;74.09
37778;BME280;23615;51.506;7.678;2023-04-22T09:25:06;99114.88;;;17.58;75.01
37778;BME280;23615;51.506;7.678;2023-04-22T09:27:38;99121.25;;;17.86;72.58
37778;BME280;23615;51.506;7.678;2023-04-22T09:30:07;99122.41;;;17.99;72.49
37778;BME280;23615;51.506;7.678;2023-04-22T09:32:32;99111.63;;;17.99;72.20
37778;BME280;23615;51.506;7.678;2023-04-22T09:34:58;99113.34;;;18.09;67.74
37778;BME280;23615;51.506;7.678;2023-04-22T09:37:24;99118.53;;;18.05;68.47
37778;BME280;23615;51.506;7.678;2023-04-22T09:39:50;99113.63;;;18.07;69.90
37778;BME280;23615;51.506;7.678;2023-04-22T09:42:20;99110.13;;;18.07;72.68
37778;BME280;23615;51.506;7.678;2023-04-22T09:44:50;99104.84;;;18.15;70.98
37778;BME280;23615;51.506;7.678;2023-04-22T09:47:19;99113.53;;;18.12;71.29
37778;BME280;23615;51.506;7.678;2023-04-22T09:49:48;99105.88;;;18.19;71.72
37778;BME280;23615;51.506;7.678;2023-04-22T09:52:23;99107.03;;;18.13;72.42
37778;BME280;23615;51.506;7.678;2023-04-22T09:54:51;99103.59;;;18.26;70.39
37778;BME280;23615;51.506;7.678;2023-04-22T09:57:17;99100.00;;;18.31;72.49
37778;BME280;23615;51.506;7.678;2023-04-22T09:59:42;99097.63;;;18.43;73.46
37778;BME280;23615;51.506;7.678;2023-04-22T10:02:07;99099.78;;;18.60;71.36
37778;BME280;23615;51.506;7.678;2023-04-22T10:04:33;99077.88;;;18.61;68.63
37778;BME280;23615;51.506;7.678;2023-04-22T10:06:59;99090.06;;;18.86;68.02
37778;BME280;23615;51.506;7.678;2023-04-22T10:09:27;99081.06;;;18.77;69.58
37778;BME280;23615;51.506;7.678;2023-04-22T10:11:54;99068.47;;;18.86;69.50
37778;BME280;23615;51.506;7.678;2023-04-22T10:14:22;99080.66;;;19.11;70.48
37778;BME280;23615;51.506;7.678;2023-04-22T10:16:49;99079.66;;;19.07;69.05
37778;BME280;23615;51.506;7.678;2023-04-22T10:19:20;99066.34;;;19.11;69.32
37778;BME280;23615;51.506;7.678;2023-04-22T10:21:48;99067.97;;;19.12;65.39
37778;BME280;23615;51.506;7.678;2023-04-22T10:24:17;99054.69;;;19.24;69.88
37778;BME280;23615;51.506;7.678;2023-04-22T10:26:57;99060.09;;;19.37;67.65
37778;BME280;23615;51.506;7.678;2023-04-22T10:29:26;99055.47;;;19.38;66.84
37778;BME280;23615;51.506;7.678;2023-04-22T10:34:30;99056.84;;;19.49;68.13
37778;BME280;23615;51.506;7.678;2023-04-22T10:37:06;99050.47;;;19.67;69.40
37778;BME280;23615;51.506;7.678;2023-04-22T10:39:31;99040.91;;;19.84;64.88
37778;BME280;23615;51.506;7.678;2023-04-22T10:42:06;99051.34;;;19.99;64.69
37778;BME280;23615;51.506;7.678;2023-04-22T10:44:50;99043.50;;;20.20;68.96
37778;BME280;23615;51.506;7.678;2023-04-22T10:50:13;99046.69;;;20.44;67.69
37778;BME280;23615;51.506;7.678;2023-04-22T10:52:42;99055.59;;;20.44;67.59
37778;BME280;23615;51.506;7.678;2023-04-22T10:55:07;99047.22;;;20.54;66.80
37778;BME280;23615;51.506;7.678;2023-04-22T10:57:37;99049.56;;;20.47;65.98
37778;BME280;23615;51.506;7.678;2023-04-22T11:02:52;99052.41;;;20.42;67.71
37778;BME280;23615;51.506;7.678;2023-04-22T11:05:20;99042.84;;;20.45;66.40
37778;BME280;23615;51.506;7.678;2023-04-22T11:07:48;99040.34;;;20.48;65.52
37778;BME280;23615;51.506;7.678;2023-04-22T11:10:30;99037.75;;;20.43;65.92
37778;BME280;23615;51.506;7.678;2023-04-22T11:12:56;99030.97;;;20.32;66.38
37778;BME280;23615;51.506;7.678;2023-04-22T11:15:21;99033.13;;;20.22;65.15
37778;BME280;23615;51.506;7.678;2023-04-22T11:17:50;99028.91;;;20.29;65.23
37778;BME280;23615;51.506;7.678;2023-04-22T11:20:15;99026.66;;;20.31;63.31
37778;BME280;23615;51.506;7.678;2023-04-22T11:22:42;99016.59;;;20.54;65.97
37778;BME280;23615;51.506;7.678;2023-04-22T11:25:08;99027.50;;;20.80;62.41
37778;BME280;23615;51.506;7.678;2023-04-22T11:27:37;99023.75;;;20.59;64.06
37778;BME280;23615;51.506;7.678;2023-04-22T11:30:05;99026.44;;;20.50;63.80
37778;BME280;23615;51.506;7.678;2023-04-22T11:32:35;99026.41;;;20.41;64.87
37778;BME280;23615;51.506;7.678;2023-04-22T11:35:16;99029.00;;;20.24;65.72
37778;BME280;23615;51.506;7.678;2023-04-22T11:37:43;99032.84;;;20.23;61.91
37778;BME280;23615;51.506;7.678;2023-04-22T11:40:15;99040.25;;;20.09;64.23
37778;BME280;23615;51.506;7.678;2023-04-22T11:42:41;99046.72;;;19.99;66.38
37778;BME280;23615;51.506;7.678;2023-04-22T11:45:07;99038.91;;;19.98;66.44
37778;BME280;23615;51.506;7.678;2023-04-22T11:47:33;99031.56;;;20.21;68.54
37778;BME280;23615;51.506;7.678;2023-04-22T11:50:00;99035.03;;;20.43;62.84
37778;BME280;23615;51.506;7.678;2023-04-22T11:52:51;99037.84;;;20.69;63.29
37778;BME280;23615;51.506;7.678;2023-04-22T11:55:23;99033.25;;;20.87;65.04
37778;BME280;23615;51.506;7.678;2023-04-22T11:57:56;99030.16;;;20.63;65.30
37778;BME280;23615;51.506;7.678;2023-04-22T12:00:23;99030.44;;;20.52;64.34
37778;BME280;23615;51.506;7.678;2023-04-22T12:02:57;99031.16;;;20.67;64.27
37778;BME280;23615;51.506;7.678;2023-04-22T12:05:42;99026.38;;;20.72;65.72
37778;BME280;23615;51.506;7.678;2023-04-22T12:08:09;99026.59;;;20.93;61.65
37778;BME280;23615;51.506;7.678;2023-04-22T12:10:54;99031.03;;;20.89;63.78
37778;BME280;23615;51.506;7.678;2023-04-22T12:13:25;99031.97;;;20.76;64.69
37778;BME280;23615;51.506;7.678;2023-04-22T12:15:59;99036.59;;;20.75;64.71
37778;BME280;23615;51.506;7.678;2023-04-22T12:18:34;99038.03;;;20.73;62.80
37778;BME280;23615;51.506;7.678;2023-04-22T12:23:29;99038.88;;;20.90;63.45
37778;BME280;23615;51.506;7.678;2023-04-22T12:25:54;99021.31;;;20.88;64.15
37778;BME280;23615;51.506;7.678;2023-04-22T12:28:19;99036.16;;;20.90;62.90
37778;BME280;23615;51.506;7.678;2023-04-22T12:30:45;99032.34;;;21.00;62.77
37778;BME280;23615;51.506;7.678;2023-04-22T12:33:10;99025.31;;;20.90;63.48
37778;BME280;23615;51.506;7.678;2023-04-22T12:35:36;99041.78;;;21.03;62.47
37778;BME280;23615;51.506;7.678;2023-04-22T12:38:01;99044.84;;;21.18;62.81
37778;BME280;23615;51.506;7.678;2023-04-22T12:40:27;99034.94;;;21.22;62.42
37778;BME280;23615;51.506;7.678;2023-04-22T12:42:52;99035.31;;;21.30;63.26
37778;BME280;23615;51.506;7.678;2023-04-22T12:45:18;99030.00;;;21.33;59.74
37778;BME280;23615;51.506;7.678;2023-04-22T12:47:43;99037.47;;;21.10;61.96
37778;BME280;23615;51.506;7.678;2023-04-22T12:50:09;99035.91;;;21.18;62.15
37778;BME280;23615;51.506;7.678;2023-04-22T12:52:35;99031.41;;;21.13;62.74
37778;BME280;23615;51.506;7.678;2023-04-22T12:55:00;99038.41;;;21.06;62.43
37778;BME280;23615;51.506;7.678;2023-04-22T12:57:33;99038.25;;;21.02;62.21
37778;BME280;23615;51.506;7.678;2023-04-22T12:59:59;99037.56;;;20.88;63.68
37778;BME280;23615;51.506;7.678;2023-04-22T13:02:24;99033.28;;;20.96;61.62
37778;BME280;23615;51.506;7.678;2023-04-22T13:04:49;99036.16;;;20.99;61.60
37778;BME280;23615;51.506;7.678;2023-04-22T13:07:15;99025.34;;;21.16;62.46